To NAV CANADA Home Page Login to a new session Search on AWWS site Disclaimer Vers la page française équivalente Tips FAQ What's new on the site To the Forecasts and Observations / NOTAM section To "File a Flight Plan" website Publications and other links Update of the User's profile FIC Telephone Numbers My Weather Data Folder Route Weather Data Regional Weather Data Local Weather Data To the Forecasts and Observations / NOTAM section
Request Generated 09/29/2023 at 21:13:21 UTC . Weather information available at that time is displayed.

METAR/TAF

TORONTO/OSHAWA EXECUTIVE AIRPORT/ON    (show WxCam)

METAR CYOO 292100Z AUTO 10011KT 9SM CLR 20/13 A3016 RMK SLP215 DENSITY ALT 900FT=
METAR CYOO 292000Z AUTO 11009KT 9SM CLR 20/14 A3016 RMK SLP214 DENSITY ALT 1000FT=
METAR CYOO 291900Z AUTO 10012KT 080V150 9SM CLR 20/13 A3017 RMK SLP218 DENSITY ALT 1000FT=

TAF CYOO 291940Z 2920/3008 10012KT P6SM FEW040
BECMG 2923/3001 VRB03KT
FM300300 05005KT P6SM SKC PROB30 3007/3008 1/2SM FG VV002
RMK FCST BASED ON AUTO OBS. NXT FCST BY 300200Z
Your time UTC time
Weather data provided by Environment Canada and NAV CANADA